createdAt,value
2018-05-24T00:00:01.282Z,21.45
2018-05-24T00:01:04.586Z,21.45
2018-05-24T00:02:07.911Z,21.44
2018-05-24T00:03:11.255Z,21.43
2018-05-24T00:04:14.598Z,21.42
2018-05-24T00:05:17.916Z,21.41
2018-05-24T00:06:21.233Z,21.41
2018-05-24T00:07:24.547Z,21.39
2018-05-24T00:08:27.882Z,21.39
2018-05-24T00:09:31.211Z,21.38
2018-05-24T00:10:34.695Z,21.37
2018-05-24T00:11:37.999Z,21.37
2018-05-24T00:12:41.311Z,21.36
2018-05-24T00:13:44.686Z,21.36
2018-05-24T00:14:47.983Z,21.36
2018-05-24T00:15:51.316Z,21.36
2018-05-24T00:16:54.634Z,21.36
2018-05-24T00:17:57.954Z,21.35
2018-05-24T00:19:01.349Z,21.35
2018-05-24T00:20:04.659Z,21.35
2018-05-24T00:21:07.969Z,21.35
2018-05-24T00:22:11.294Z,21.34
2018-05-24T00:23:14.605Z,21.33
2018-05-24T00:24:17.948Z,21.32
2018-05-24T00:25:21.275Z,21.31
2018-05-24T00:26:24.603Z,21.32
2018-05-24T00:27:27.907Z,21.31
2018-05-24T00:28:31.464Z,21.30
2018-05-24T00:29:34.815Z,21.30
2018-05-24T00:30:38.147Z,21.30
2018-05-24T00:31:41.457Z,21.29
2018-05-24T00:32:44.780Z,21.29
2018-05-24T00:33:48.371Z,21.29
2018-05-24T00:34:51.718Z,21.28
2018-05-24T00:35:55.052Z,21.28
2018-05-24T00:36:58.362Z,21.29
2018-05-24T00:38:01.680Z,21.28
2018-05-24T00:39:04.995Z,21.28
2018-05-24T00:40:08.330Z,21.29
2018-05-24T00:41:11.660Z,21.28
2018-05-24T00:42:14.975Z,21.28
2018-05-24T00:43:18.310Z,21.28
2018-05-24T00:44:21.647Z,21.27
2018-05-24T00:45:24.991Z,21.28
2018-05-24T00:46:28.293Z,21.26
2018-05-24T00:47:31.613Z,21.26
2018-05-24T00:48:34.938Z,21.27
2018-05-24T00:49:38.266Z,21.26
2018-05-24T00:50:41.654Z,21.26
2018-05-24T00:51:44.931Z,21.25
2018-05-24T00:52:48.322Z,21.25
2018-05-24T00:53:51.629Z,21.24
2018-05-24T00:55:01.564Z,21.24
2018-05-24T00:56:04.885Z,21.24
2018-05-24T00:57:08.559Z,21.23
2018-05-24T00:58:11.881Z,21.23
2018-05-24T00:59:15.191Z,21.23
2018-05-24T01:00:18.510Z,21.23
2018-05-24T01:01:21.870Z,21.22
2018-05-24T01:02:25.166Z,21.21
2018-05-24T01:03:28.499Z,21.20
2018-05-24T01:04:31.816Z,21.18
2018-05-24T01:05:35.176Z,21.17
2018-05-24T01:06:38.507Z,21.14
2018-05-24T01:07:41.807Z,21.13
2018-05-24T01:08:45.127Z,21.10
2018-05-24T01:09:48.431Z,21.10
2018-05-24T01:10:51.730Z,21.08
2018-05-24T01:11:55.113Z,21.07
2018-05-24T01:12:58.430Z,21.08
2018-05-24T01:14:01.766Z,21.08
2018-05-24T01:15:05.111Z,21.09
2018-05-24T01:16:08.487Z,21.10
2018-05-24T01:17:11.834Z,21.12
2018-05-24T01:18:15.140Z,21.13
2018-05-24T01:19:18.772Z,21.14
2018-05-24T01:20:22.086Z,21.16
2018-05-24T01:21:25.394Z,21.16
2018-05-24T01:22:28.749Z,21.16
2018-05-24T01:23:32.065Z,21.17
2018-05-24T01:24:35.355Z,21.19
2018-05-24T01:25:39.205Z,21.20
2018-05-24T01:26:42.588Z,21.21
2018-05-24T01:27:45.923Z,21.20
2018-05-24T01:28:49.475Z,21.21
2018-05-24T01:29:52.780Z,21.21
2018-05-24T01:30:56.088Z,21.22
2018-05-24T01:31:59.442Z,21.21
2018-05-24T01:33:02.774Z,21.21
2018-05-24T01:34:06.107Z,21.22
2018-05-24T01:35:09.417Z,21.22
2018-05-24T01:36:12.770Z,21.21
2018-05-24T01:37:27.682Z,21.22
2018-05-24T01:38:31.027Z,21.19
2018-05-24T01:39:34.330Z,21.20
2018-05-24T01:40:37.670Z,21.20
2018-05-24T01:41:40.983Z,21.20
2018-05-24T01:42:44.378Z,21.20
2018-05-24T01:43:47.717Z,21.20
2018-05-24T01:44:51.028Z,21.20
2018-05-24T01:45:54.364Z,21.19
2018-05-24T01:46:57.683Z,21.19
2018-05-24T01:48:00.999Z,21.20
2018-05-24T01:49:04.331Z,21.20
2018-05-24T01:50:07.643Z,21.20
2018-05-24T01:51:10.951Z,21.20
2018-05-24T01:52:14.263Z,21.19
2018-05-24T01:53:17.595Z,21.19
2018-05-24T01:54:20.958Z,21.19
2018-05-24T01:55:24.271Z,21.19
2018-05-24T01:56:27.594Z,21.19
2018-05-24T01:57:30.936Z,21.18
2018-05-24T01:58:34.238Z,21.17
2018-05-24T01:59:37.569Z,21.17
2018-05-24T02:00:40.884Z,21.17
2018-05-24T02:01:44.198Z,21.17
2018-05-24T02:02:47.514Z,21.17
2018-05-24T02:03:50.838Z,21.16
2018-05-24T02:04:54.233Z,21.15
2018-05-24T02:05:57.552Z,21.15
2018-05-24T02:07:00.875Z,21.14
2018-05-24T02:08:04.198Z,21.16
2018-05-24T02:09:07.569Z,21.15
2018-05-24T02:10:10.934Z,21.16
2018-05-24T02:11:14.204Z,21.17
2018-05-24T02:12:17.520Z,21.18
2018-05-24T02:13:20.846Z,21.19
2018-05-24T02:14:24.148Z,21.19
2018-05-24T02:15:27.491Z,21.18
2018-05-24T02:16:30.794Z,21.19
2018-05-24T02:17:34.124Z,21.19
2018-05-24T02:18:37.428Z,21.20
2018-05-24T02:19:40.747Z,21.20
2018-05-24T02:20:44.098Z,21.20
2018-05-24T02:21:47.406Z,21.20
2018-05-24T02:22:50.729Z,21.20
2018-05-24T02:23:54.043Z,21.20
2018-05-24T02:24:57.374Z,21.21
2018-05-24T02:26:00.722Z,21.21
2018-05-24T02:27:04.014Z,21.21
2018-05-24T02:28:07.333Z,21.22
2018-05-24T02:29:10.823Z,21.22
2018-05-24T02:30:14.091Z,21.21
2018-05-24T02:31:17.447Z,21.21
2018-05-24T02:32:20.758Z,21.21
2018-05-24T02:33:24.068Z,21.21
2018-05-24T02:34:27.370Z,21.21
2018-05-24T02:35:30.700Z,21.20
2018-05-24T02:36:34.046Z,21.22
2018-05-24T02:37:37.363Z,21.22
2018-05-24T02:38:40.674Z,21.22
2018-05-24T02:39:43.999Z,21.22
2018-05-24T02:40:47.311Z,21.22
2018-05-24T02:41:50.655Z,21.22
2018-05-24T02:42:53.956Z,21.22
2018-05-24T02:43:57.276Z,21.23
2018-05-24T02:45:00.615Z,21.22
2018-05-24T02:46:03.910Z,21.23
2018-05-24T02:47:07.252Z,21.21
2018-05-24T02:48:10.609Z,21.22
2018-05-24T02:49:13.954Z,21.22
2018-05-24T02:50:17.254Z,21.22
2018-05-24T02:51:20.567Z,21.22
2018-05-24T02:52:23.895Z,21.23
2018-05-24T02:53:27.202Z,21.22
2018-05-24T02:54:30.520Z,21.23
2018-05-24T02:55:33.852Z,21.22
2018-05-24T02:56:37.187Z,21.21
2018-05-24T02:57:40.544Z,21.22
2018-05-24T02:58:43.872Z,21.22
2018-05-24T02:59:47.196Z,21.21
2018-05-24T03:00:50.501Z,21.20
2018-05-24T03:01:53.797Z,21.21
2018-05-24T03:02:57.138Z,21.19
2018-05-24T03:04:00.439Z,21.17
2018-05-24T03:05:03.772Z,21.15
2018-05-24T03:06:07.071Z,21.13
2018-05-24T03:07:10.400Z,21.11
2018-05-24T03:08:13.739Z,21.11
2018-05-24T03:09:17.050Z,21.09
2018-05-24T03:10:20.354Z,21.10
2018-05-24T03:11:23.665Z,21.11
2018-05-24T03:12:26.963Z,21.11
2018-05-24T03:13:30.300Z,21.11
2018-05-24T03:14:33.607Z,21.13
2018-05-24T03:15:36.907Z,21.13
2018-05-24T03:16:40.227Z,21.13
2018-05-24T03:17:43.531Z,21.13
2018-05-24T03:18:46.860Z,21.14
2018-05-24T03:19:50.162Z,21.14
2018-05-24T03:20:53.505Z,21.14
2018-05-24T03:21:56.829Z,21.15
2018-05-24T03:23:00.140Z,21.14
2018-05-24T03:24:03.492Z,21.15
2018-05-24T03:25:06.802Z,21.15
2018-05-24T03:26:10.121Z,21.15
2018-05-24T03:27:13.430Z,21.14
2018-05-24T03:28:16.747Z,21.13
2018-05-24T03:29:23.383Z,21.13
2018-05-24T03:30:26.683Z,21.13
2018-05-24T03:31:30.141Z,21.14
2018-05-24T03:32:33.445Z,21.11
2018-05-24T03:33:36.783Z,21.11
2018-05-24T03:34:40.122Z,21.11
2018-05-24T03:35:43.459Z,21.11
2018-05-24T03:36:46.969Z,21.11
2018-05-24T03:37:50.275Z,21.11
2018-05-24T03:38:53.571Z,21.10
2018-05-24T03:39:56.929Z,21.09
2018-05-24T03:41:00.343Z,21.09
2018-05-24T03:42:03.672Z,21.08
2018-05-24T03:43:07.085Z,21.08
2018-05-24T03:44:10.392Z,21.08
2018-05-24T03:45:13.769Z,21.06
2018-05-24T03:46:17.113Z,21.05
2018-05-24T03:47:20.480Z,21.04
2018-05-24T03:48:23.990Z,21.03
2018-05-24T03:49:27.279Z,21.02
2018-05-24T03:50:30.632Z,21.01
2018-05-24T03:51:33.931Z,21.00
2018-05-24T03:52:37.246Z,20.98
2018-05-24T03:53:40.548Z,20.98
2018-05-24T03:54:43.872Z,20.96
2018-05-24T03:55:47.214Z,20.94
2018-05-24T03:56:50.550Z,20.92
2018-05-24T03:57:53.871Z,20.89
2018-05-24T04:01:00.853Z,20.75
2018-05-24T04:02:11.844Z,20.72
2018-05-24T04:03:26.970Z,20.72
2018-05-24T04:04:41.943Z,20.70
2018-05-24T04:05:45.317Z,20.68
2018-05-24T04:06:48.593Z,20.69
2018-05-24T04:07:51.916Z,20.71
2018-05-24T04:08:55.228Z,20.72
2018-05-24T04:09:58.548Z,20.72
2018-05-24T04:11:01.905Z,20.73
2018-05-24T04:12:05.283Z,20.74
2018-05-24T04:13:08.581Z,20.74
2018-05-24T04:14:11.889Z,20.74
2018-05-24T04:15:15.209Z,20.74
2018-05-24T04:16:18.543Z,20.73
2018-05-24T04:17:21.883Z,20.72
2018-05-24T04:18:25.200Z,20.71
2018-05-24T04:19:29.758Z,20.70
2018-05-24T04:20:33.081Z,20.70
2018-05-24T04:21:36.394Z,20.70
2018-05-24T04:22:39.738Z,20.70
2018-05-24T04:23:43.057Z,20.70
2018-05-24T04:24:46.374Z,20.69
2018-05-24T04:25:49.699Z,20.68
2018-05-24T04:26:53.008Z,20.67
2018-05-24T04:27:56.373Z,20.67
2018-05-24T04:28:59.677Z,20.67
2018-05-24T04:30:03.167Z,20.67
2018-05-24T04:31:06.476Z,20.66
2018-05-24T04:32:09.811Z,20.64
2018-05-24T04:33:13.140Z,20.61
2018-05-24T04:34:16.439Z,20.58
2018-05-24T04:35:19.789Z,20.57
2018-05-24T04:36:23.102Z,20.54
2018-05-24T04:37:26.423Z,20.52
2018-05-24T04:38:29.768Z,20.52
2018-05-24T04:39:33.109Z,20.51
2018-05-24T04:40:36.407Z,20.50
2018-05-24T04:41:39.719Z,20.49
2018-05-24T04:42:43.069Z,20.48
2018-05-24T04:43:46.399Z,20.48
2018-05-24T04:44:49.709Z,20.48
2018-05-24T04:45:53.035Z,20.47
2018-05-24T04:46:57.272Z,20.39
2018-05-24T04:48:00.607Z,20.26
2018-05-24T04:49:03.938Z,20.15
2018-05-24T04:50:07.254Z,20.03
2018-05-24T04:51:10.566Z,19.93
2018-05-24T04:52:14.003Z,19.80
2018-05-24T04:53:17.196Z,19.69
2018-05-24T04:54:20.543Z,19.62
2018-05-24T04:55:23.860Z,19.58
2018-05-24T04:56:27.191Z,19.53
2018-05-24T04:57:30.525Z,19.48
2018-05-24T04:58:33.849Z,19.44
2018-05-24T04:59:37.206Z,19.40
2018-05-24T05:00:40.531Z,19.37
2018-05-24T05:01:43.937Z,19.34
2018-05-24T05:02:47.186Z,19.32
2018-05-24T05:03:50.788Z,19.32
2018-05-24T05:04:54.119Z,19.29
2018-05-24T05:05:57.427Z,19.28
2018-05-24T05:07:00.769Z,19.27
2018-05-24T05:08:04.079Z,19.25
2018-05-24T05:09:07.578Z,19.25
2018-05-24T05:10:10.927Z,19.25
2018-05-24T05:11:14.239Z,19.25
2018-05-24T05:12:17.716Z,19.23
2018-05-24T05:13:21.027Z,19.20
2018-05-24T05:14:24.349Z,19.18
2018-05-24T05:15:27.718Z,19.16
2018-05-24T05:16:31.041Z,19.15
2018-05-24T05:17:34.352Z,19.11
2018-05-24T05:18:37.679Z,19.09
2018-05-24T05:19:40.997Z,19.05
2018-05-24T05:20:44.346Z,19.03
2018-05-24T05:21:47.662Z,19.03
2018-05-24T05:22:50.974Z,19.00
2018-05-24T05:23:54.307Z,18.99
2018-05-24T05:24:57.634Z,18.97
2018-05-24T05:26:01.026Z,18.96
2018-05-24T05:27:04.356Z,18.94
2018-05-24T05:28:07.672Z,18.91
2018-05-24T05:29:10.993Z,18.88
2018-05-24T05:30:14.455Z,18.87
2018-05-24T05:31:17.803Z,18.85
2018-05-24T05:32:21.138Z,18.83
2018-05-24T05:33:24.469Z,18.81
2018-05-24T05:34:27.792Z,18.76
2018-05-24T05:35:31.142Z,18.74
2018-05-24T05:36:34.516Z,18.71
2018-05-24T05:37:37.947Z,18.71
2018-05-24T05:38:41.509Z,18.71
2018-05-24T05:39:44.838Z,18.69
2018-05-24T05:40:48.194Z,18.67
2018-05-24T05:41:51.513Z,18.66
2018-05-24T05:42:54.860Z,18.63
2018-05-24T05:43:58.166Z,18.61
2018-05-24T05:45:01.573Z,18.60
2018-05-24T05:46:04.903Z,18.57
2018-05-24T05:47:08.250Z,18.54
2018-05-24T05:48:11.591Z,18.54
2018-05-24T05:49:14.919Z,18.54
2018-05-24T05:50:18.233Z,18.53
2018-05-24T05:51:21.546Z,18.52
2018-05-24T05:52:24.896Z,18.50
2018-05-24T05:53:28.215Z,18.48
2018-05-24T05:54:31.524Z,18.45
2018-05-24T05:55:34.837Z,18.44
2018-05-24T05:56:38.205Z,18.44
2018-05-24T05:57:41.546Z,18.43
2018-05-24T05:58:44.914Z,18.43
2018-05-24T05:59:48.212Z,18.45
2018-05-24T06:00:51.519Z,18.45
2018-05-24T06:01:54.838Z,18.45
2018-05-24T06:02:58.186Z,18.47
2018-05-24T06:04:01.488Z,18.47
2018-05-24T06:05:05.136Z,18.49
2018-05-24T06:06:08.472Z,18.52
2018-05-24T06:07:11.797Z,18.51
2018-05-24T06:08:15.164Z,18.50
2018-05-24T06:09:18.494Z,18.48
2018-05-24T06:10:21.819Z,18.48
2018-05-24T06:11:25.165Z,18.48
2018-05-24T06:12:28.486Z,18.49
2018-05-24T06:13:31.846Z,18.49
2018-05-24T06:14:35.176Z,18.50
2018-05-24T06:15:38.505Z,18.49
2018-05-24T06:16:41.840Z,18.49
2018-05-24T06:17:45.167Z,18.49
2018-05-24T06:18:48.770Z,18.48
2018-05-24T06:19:52.115Z,18.49
2018-05-24T06:20:55.470Z,18.50
2018-05-24T06:21:58.802Z,18.53
2018-05-24T06:23:02.374Z,18.54
2018-05-24T06:24:05.768Z,18.55
2018-05-24T06:25:09.079Z,18.54
2018-05-24T06:26:12.425Z,18.55
2018-05-24T06:27:15.734Z,18.55
2018-05-24T06:28:19.142Z,18.55
2018-05-24T06:29:22.603Z,18.53
2018-05-24T06:30:26.031Z,18.52
2018-05-24T06:31:29.463Z,18.51
2018-05-24T06:32:32.847Z,18.51
2018-05-24T06:33:36.159Z,18.51
2018-05-24T06:34:39.516Z,18.49
2018-05-24T06:35:42.848Z,18.48
2018-05-24T06:36:46.162Z,18.50
2018-05-24T06:37:49.495Z,18.50
2018-05-24T06:38:52.842Z,18.52
2018-05-24T06:39:56.222Z,18.52
2018-05-24T06:40:59.538Z,18.52
2018-05-24T06:42:02.865Z,18.53
2018-05-24T06:43:06.166Z,18.55
2018-05-24T06:44:09.477Z,18.55
2018-05-24T06:45:12.833Z,18.55
2018-05-24T06:46:16.152Z,18.55
2018-05-24T06:47:19.475Z,18.56
2018-05-24T06:48:22.807Z,18.59
2018-05-24T06:49:26.133Z,18.64
2018-05-24T06:50:29.636Z,18.67
2018-05-24T06:51:32.942Z,18.69
2018-05-24T06:52:36.266Z,18.73
2018-05-24T06:53:39.663Z,18.77
2018-05-24T06:54:42.908Z,18.80
2018-05-24T06:55:46.253Z,18.83
2018-05-24T06:56:49.562Z,18.86
2018-05-24T06:57:52.883Z,18.90
2018-05-24T06:58:56.214Z,18.92
2018-05-24T06:59:59.559Z,18.94
2018-05-24T07:01:02.882Z,18.96
2018-05-24T07:02:06.203Z,18.98
2018-05-24T07:03:09.516Z,19.00
2018-05-24T07:04:12.819Z,19.02
2018-05-24T07:05:16.129Z,19.03
2018-05-24T07:06:19.490Z,19.03
2018-05-24T07:07:23.008Z,19.03
2018-05-24T07:08:26.320Z,19.04
2018-05-24T07:09:29.646Z,19.05
2018-05-24T07:10:32.991Z,19.06
2018-05-24T07:11:36.336Z,19.05
2018-05-24T07:12:39.643Z,19.03
2018-05-24T07:13:42.976Z,19.02
2018-05-24T07:14:46.331Z,19.00
2018-05-24T07:15:49.703Z,18.99
2018-05-24T07:16:53.192Z,18.98
2018-05-24T07:17:56.527Z,18.96
2018-05-24T07:18:59.831Z,18.94
2018-05-24T07:20:03.167Z,18.91
2018-05-24T07:21:06.479Z,18.89
2018-05-24T07:22:09.827Z,18.87
2018-05-24T07:23:13.155Z,18.85
2018-05-24T07:24:16.464Z,18.84
2018-05-24T07:25:19.811Z,18.84
2018-05-24T07:26:23.174Z,18.84
2018-05-24T07:27:26.548Z,18.85
2018-05-24T07:28:29.866Z,18.87
2018-05-24T07:29:33.175Z,18.89
2018-05-24T07:30:36.578Z,18.93
2018-05-24T07:31:39.920Z,18.95
2018-05-24T07:32:43.264Z,18.99
2018-05-24T07:33:46.612Z,19.03
2018-05-24T07:34:49.931Z,19.08
2018-05-24T07:35:53.244Z,19.14
2018-05-24T07:36:56.571Z,19.20
2018-05-24T07:37:59.895Z,19.27
2018-05-24T07:39:03.209Z,19.33
2018-05-24T07:40:06.544Z,19.39
2018-05-24T07:41:09.847Z,19.44
2018-05-24T07:42:13.161Z,19.48
2018-05-24T07:43:16.492Z,19.52
2018-05-24T07:44:19.887Z,19.55
2018-05-24T07:45:23.182Z,19.59
2018-05-24T07:46:26.504Z,19.62
2018-05-24T07:47:29.819Z,19.65
2018-05-24T07:48:33.155Z,19.67
2018-05-24T07:49:36.486Z,19.68
2018-05-24T07:50:39.808Z,19.70
2018-05-24T07:51:43.124Z,19.72
2018-05-24T07:52:46.464Z,19.74
2018-05-24T07:53:49.815Z,19.76
2018-05-24T07:54:53.206Z,19.82
2018-05-24T07:55:56.434Z,19.85
2018-05-24T07:56:59.737Z,19.90
2018-05-24T07:58:03.043Z,19.95
2018-05-24T07:59:06.376Z,20.01
2018-05-24T08:00:09.684Z,20.05
2018-05-24T08:01:12.984Z,20.10
2018-05-24T08:02:16.334Z,20.13
2018-05-24T08:03:19.622Z,20.17
2018-05-24T08:04:22.995Z,20.20
2018-05-24T08:05:26.322Z,20.22
2018-05-24T08:06:29.737Z,20.23
2018-05-24T08:07:33.057Z,20.25
2018-05-24T08:08:36.467Z,20.26
2018-05-24T08:09:39.741Z,20.29
2018-05-24T08:10:43.034Z,20.29
2018-05-24T08:11:46.348Z,20.31
2018-05-24T08:12:49.684Z,20.35
2018-05-24T08:13:52.990Z,20.38
2018-05-24T08:14:56.323Z,20.43
2018-05-24T08:15:59.638Z,20.47
2018-05-24T08:17:02.956Z,20.52
2018-05-24T08:18:06.262Z,20.58
2018-05-24T08:19:09.570Z,20.64
2018-05-24T08:20:12.920Z,20.67
2018-05-24T08:21:16.238Z,20.70
2018-05-24T08:22:19.543Z,20.72
2018-05-24T08:23:22.858Z,20.76
2018-05-24T08:24:26.187Z,20.82
2018-05-24T08:25:29.578Z,20.88
2018-05-24T08:26:32.918Z,20.95
2018-05-24T08:27:36.214Z,21.03
2018-05-24T08:28:39.542Z,21.12
2018-05-24T08:29:42.848Z,21.22
2018-05-24T08:30:46.382Z,21.29
2018-05-24T08:31:49.690Z,21.36
2018-05-24T08:32:52.999Z,21.41
2018-05-24T08:33:56.352Z,21.46
2018-05-24T08:34:59.740Z,21.47
2018-05-24T08:36:03.017Z,21.47
2018-05-24T08:37:06.332Z,21.49
2018-05-24T08:38:09.658Z,21.52
2018-05-24T08:39:13.442Z,21.59
2018-05-24T08:40:16.740Z,21.65
2018-05-24T08:41:20.146Z,21.71
2018-05-24T08:42:23.446Z,21.74
2018-05-24T08:43:26.752Z,21.76
2018-05-24T08:44:30.072Z,21.80
2018-05-24T08:45:33.387Z,21.82
2018-05-24T08:46:36.731Z,21.86
2018-05-24T08:47:40.044Z,21.88
2018-05-24T08:48:43.359Z,21.91
2018-05-24T08:49:46.671Z,21.94
2018-05-24T08:50:50.023Z,21.95
2018-05-24T08:51:53.368Z,21.98
2018-05-24T08:52:56.803Z,22.01
2018-05-24T08:54:00.136Z,22.04
2018-05-24T08:55:03.498Z,22.08
2018-05-24T08:56:06.810Z,22.12
2018-05-24T08:57:10.186Z,22.16
2018-05-24T08:58:13.534Z,22.19
2018-05-24T08:59:16.852Z,22.21
2018-05-24T09:00:20.163Z,22.23
2018-05-24T09:01:23.566Z,22.28
2018-05-24T09:02:26.908Z,22.31
2018-05-24T09:03:30.212Z,22.33
2018-05-24T09:04:33.527Z,22.34
2018-05-24T09:05:36.845Z,22.35
2018-05-24T09:06:40.179Z,22.36
2018-05-24T09:07:43.564Z,22.38
2018-05-24T09:08:46.862Z,22.41
2018-05-24T09:09:50.184Z,22.39
2018-05-24T09:10:53.514Z,22.40
2018-05-24T09:11:56.854Z,22.43
2018-05-24T09:13:00.178Z,22.46
2018-05-24T09:14:03.512Z,22.50
2018-05-24T09:15:06.815Z,22.52
2018-05-24T09:16:10.133Z,22.56
2018-05-24T09:17:13.493Z,22.58
2018-05-24T09:18:16.879Z,22.62
2018-05-24T09:19:20.243Z,22.64
2018-05-24T09:20:23.556Z,22.65
2018-05-24T09:21:26.859Z,22.66
2018-05-24T09:22:30.167Z,22.67
2018-05-24T09:23:33.530Z,22.65
2018-05-24T09:24:36.851Z,22.64
2018-05-24T09:25:40.287Z,22.64
2018-05-24T09:26:43.967Z,22.64
2018-05-24T09:27:47.279Z,22.66
2018-05-24T09:28:50.685Z,22.66
2018-05-24T09:29:54.004Z,22.66
2018-05-24T09:30:57.613Z,22.67
2018-05-24T09:32:00.922Z,22.68
2018-05-24T09:33:04.252Z,22.71
2018-05-24T09:34:07.645Z,22.73
2018-05-24T09:35:10.992Z,22.75
2018-05-24T09:36:14.305Z,22.77
2018-05-24T09:37:17.705Z,22.78
2018-05-24T09:38:21.007Z,22.79
2018-05-24T09:39:24.376Z,22.79
2018-05-24T09:40:27.855Z,22.76
2018-05-24T09:41:31.235Z,22.73
2018-05-24T09:42:34.630Z,22.70
2018-05-24T09:43:37.942Z,22.68
2018-05-24T09:44:41.327Z,22.68
2018-05-24T09:45:44.665Z,22.68
2018-05-24T09:46:47.982Z,22.67
2018-05-24T09:47:51.313Z,22.64
2018-05-24T09:48:54.644Z,22.63
2018-05-24T09:49:57.981Z,22.61
2018-05-24T09:51:01.295Z,22.60
2018-05-24T09:52:04.608Z,22.60
2018-05-24T09:53:07.930Z,22.59
2018-05-24T09:54:11.323Z,22.60
2018-05-24T09:55:14.788Z,22.61
2018-05-24T09:56:18.028Z,22.61
2018-05-24T09:57:21.385Z,22.63
2018-05-24T09:58:24.727Z,22.64
2018-05-24T09:59:28.051Z,22.67
2018-05-24T10:00:31.395Z,22.70
2018-05-24T10:01:34.730Z,22.73
2018-05-24T10:02:38.070Z,22.77
2018-05-24T10:03:41.577Z,22.79
2018-05-24T10:04:44.991Z,22.82
2018-05-24T10:05:48.288Z,22.84
2018-05-24T10:06:51.622Z,22.86
2018-05-24T10:07:54.972Z,22.88
2018-05-24T10:08:58.331Z,22.90
2018-05-24T10:10:01.659Z,22.92
2018-05-24T10:11:05.043Z,22.93
2018-05-24T10:12:08.373Z,22.94
2018-05-24T10:13:11.709Z,22.98
2018-05-24T10:14:15.031Z,23.02
2018-05-24T10:15:18.392Z,23.05
2018-05-24T10:16:21.848Z,23.09
2018-05-24T10:17:25.067Z,23.12
2018-05-24T10:18:29.003Z,23.13
2018-05-24T10:19:32.328Z,23.16
2018-05-24T10:20:35.655Z,23.19
2018-05-24T10:21:39.004Z,23.20
2018-05-24T10:22:42.320Z,23.22
2018-05-24T10:24:55.096Z,23.26
2018-05-24T10:25:58.463Z,23.27
2018-05-24T10:27:01.830Z,23.27
2018-05-24T10:28:05.251Z,23.26
2018-05-24T10:29:08.681Z,23.24
2018-05-24T10:30:11.997Z,23.24
2018-05-24T10:31:15.425Z,23.23
2018-05-24T10:32:18.798Z,23.25
2018-05-24T10:33:22.133Z,23.26
2018-05-24T10:34:25.451Z,23.30
2018-05-24T10:35:28.807Z,23.32
2018-05-24T10:36:32.152Z,23.36
2018-05-24T10:37:35.522Z,23.42
2018-05-24T10:38:38.904Z,23.49
2018-05-24T10:39:42.264Z,23.56
2018-05-24T10:40:45.574Z,23.62
2018-05-24T10:41:48.907Z,23.67
2018-05-24T10:42:52.258Z,23.71
2018-05-24T10:43:55.608Z,23.75
2018-05-24T10:44:58.960Z,23.79
2018-05-24T10:46:02.272Z,23.81
2018-05-24T10:47:05.678Z,23.81
2018-05-24T10:48:09.028Z,23.81
2018-05-24T10:49:12.365Z,23.82
2018-05-24T10:50:15.694Z,23.83
2018-05-24T10:51:19.148Z,23.85
2018-05-24T10:52:22.387Z,23.89
2018-05-24T10:53:25.747Z,23.93
2018-05-24T10:54:29.075Z,23.96
2018-05-24T10:55:32.398Z,23.99
2018-05-24T10:56:35.781Z,24.01
2018-05-24T10:57:39.135Z,24.02
2018-05-24T10:58:42.487Z,24.02
2018-05-24T10:59:45.852Z,24.03
2018-05-24T11:00:49.182Z,24.04
2018-05-24T11:01:52.511Z,24.05
2018-05-24T11:02:55.875Z,24.05
2018-05-24T11:03:59.204Z,24.05
2018-05-24T11:05:02.676Z,24.06
2018-05-24T11:07:08.689Z,24.11
2018-05-24T11:08:11.998Z,24.12
2018-05-24T11:09:15.358Z,24.10
2018-05-24T11:10:18.684Z,24.06
2018-05-24T11:11:22.002Z,24.03
2018-05-24T11:12:25.324Z,24.00
2018-05-24T11:13:28.650Z,23.99
2018-05-24T11:14:32.007Z,23.96
2018-05-24T11:15:35.310Z,23.92
2018-05-24T11:16:38.648Z,23.91
2018-05-24T11:17:41.975Z,23.88
2018-05-24T11:18:45.341Z,23.83
2018-05-24T11:19:48.693Z,23.79
2018-05-24T11:20:51.999Z,23.76
2018-05-24T11:21:55.361Z,23.76
2018-05-24T11:22:58.682Z,23.78
2018-05-24T11:24:02.022Z,23.81
2018-05-24T11:25:05.498Z,23.84
2018-05-24T11:26:08.757Z,23.85
2018-05-24T11:27:12.105Z,23.85
2018-05-24T11:28:15.460Z,23.86
2018-05-24T11:29:18.781Z,23.89
2018-05-24T11:30:22.303Z,23.92
2018-05-24T11:31:25.688Z,23.92
2018-05-24T11:32:29.021Z,23.94
2018-05-24T11:33:32.343Z,23.94
2018-05-24T11:34:35.703Z,23.94
2018-05-24T11:35:39.065Z,23.96
2018-05-24T11:36:42.420Z,23.99
2018-05-24T11:37:45.784Z,24.05
2018-05-24T11:38:49.164Z,24.12
2018-05-24T11:39:52.501Z,24.17
2018-05-24T11:40:55.870Z,24.23
2018-05-24T11:41:59.215Z,24.31
2018-05-24T11:43:02.565Z,24.37
2018-05-24T11:44:05.882Z,24.40
2018-05-24T11:45:09.227Z,24.40
2018-05-24T11:46:12.593Z,24.41
2018-05-24T11:47:15.918Z,24.42
2018-05-24T11:48:19.260Z,24.42
2018-05-24T11:49:22.580Z,24.45
2018-05-24T11:50:25.899Z,24.50
2018-05-24T11:51:29.244Z,24.55
2018-05-24T11:52:32.566Z,24.61
2018-05-24T11:53:35.890Z,24.65
2018-05-24T11:54:39.215Z,24.69
2018-05-24T11:55:42.583Z,24.71
2018-05-24T11:56:45.934Z,24.72
2018-05-24T11:57:49.259Z,24.73
2018-05-24T11:58:52.603Z,24.76
2018-05-24T11:59:55.920Z,24.78
2018-05-24T12:00:59.246Z,24.80
2018-05-24T12:02:02.671Z,24.83
2018-05-24T12:03:06.019Z,24.84
2018-05-24T12:04:09.336Z,24.84
2018-05-24T12:05:12.672Z,24.81
2018-05-24T12:06:16.059Z,24.79
2018-05-24T12:07:19.407Z,24.77
2018-05-24T12:08:22.740Z,24.77
2018-05-24T12:09:26.253Z,24.78
2018-05-24T12:10:29.586Z,24.77
2018-05-24T12:11:32.921Z,24.75
2018-05-24T12:12:36.279Z,24.71
2018-05-24T12:13:39.613Z,24.66
2018-05-24T12:14:42.974Z,24.61
2018-05-24T12:15:46.290Z,24.57
2018-05-24T12:16:49.639Z,24.53
2018-05-24T12:17:52.988Z,24.50
2018-05-24T12:18:56.334Z,24.47
2018-05-24T12:19:59.666Z,24.44
2018-05-24T12:21:02.975Z,24.41
2018-05-24T12:22:06.311Z,24.39
2018-05-24T12:23:09.635Z,24.37
2018-05-24T12:24:12.950Z,24.36
2018-05-24T12:25:16.254Z,24.36
2018-05-24T12:26:19.652Z,24.35
2018-05-24T12:27:22.983Z,24.34
2018-05-24T12:28:26.368Z,24.34
2018-05-24T12:29:29.704Z,24.33
2018-05-24T12:30:33.095Z,24.33
2018-05-24T12:31:36.503Z,24.32
2018-05-24T12:32:39.845Z,24.31
2018-05-24T12:33:43.198Z,24.31
2018-05-24T12:34:46.537Z,24.30
2018-05-24T12:35:49.883Z,24.31
2018-05-24T12:36:53.206Z,24.32
2018-05-24T12:37:56.532Z,24.33
2018-05-24T12:38:59.884Z,24.35
2018-05-24T12:40:03.211Z,24.38
2018-05-24T12:41:06.516Z,24.41
2018-05-24T12:42:09.833Z,24.42
2018-05-24T12:43:13.155Z,24.45
2018-05-24T12:44:16.515Z,24.50
2018-05-24T12:45:19.846Z,24.54
2018-05-24T12:46:23.157Z,24.60
2018-05-24T12:47:26.493Z,24.66
2018-05-24T12:48:29.828Z,24.70
2018-05-24T12:49:33.151Z,24.75
2018-05-24T12:50:36.513Z,24.80
2018-05-24T12:51:39.833Z,24.85
2018-05-24T12:52:43.178Z,24.91
2018-05-24T12:53:46.490Z,24.97
2018-05-24T12:54:49.855Z,25.03
2018-05-24T12:55:53.187Z,25.11
2018-05-24T12:56:56.498Z,25.18
2018-05-24T12:57:59.824Z,25.26
2018-05-24T12:59:03.164Z,25.33
2018-05-24T13:00:06.500Z,25.42
2018-05-24T13:01:09.811Z,25.48
2018-05-24T13:02:13.118Z,25.53
2018-05-24T13:03:16.425Z,25.58
2018-05-24T13:04:19.828Z,25.62
2018-05-24T13:05:23.087Z,25.65
2018-05-24T13:06:26.375Z,25.68
2018-05-24T13:07:29.710Z,25.72
2018-05-24T13:08:33.013Z,25.75
2018-05-24T13:09:36.322Z,25.76
2018-05-24T13:10:39.695Z,25.77
2018-05-24T13:11:43.001Z,25.76
2018-05-24T13:12:46.311Z,25.76
2018-05-24T13:13:49.635Z,25.76
2018-05-24T13:14:52.946Z,25.75
2018-05-24T13:15:56.314Z,25.76
2018-05-24T13:16:59.629Z,25.78
2018-05-24T13:18:02.969Z,25.81
2018-05-24T13:19:06.267Z,25.84
2018-05-24T13:20:09.600Z,25.88
2018-05-24T13:21:12.957Z,25.91
2018-05-24T13:22:16.290Z,25.94
2018-05-24T13:23:19.608Z,25.96
2018-05-24T13:24:22.931Z,25.96
2018-05-24T13:25:26.247Z,25.96
2018-05-24T13:26:29.590Z,25.98
2018-05-24T13:27:32.918Z,25.98
2018-05-24T13:28:36.277Z,26.00
2018-05-24T13:29:39.598Z,25.99
2018-05-24T13:30:42.946Z,25.98
2018-05-24T13:31:46.358Z,25.96
2018-05-24T13:32:49.670Z,25.92
2018-05-24T13:33:53.013Z,25.87
2018-05-24T13:34:56.316Z,25.83
2018-05-24T13:35:59.650Z,25.77
2018-05-24T13:37:02.995Z,25.72
2018-05-24T13:38:06.296Z,25.69
2018-05-24T13:39:09.619Z,25.66
2018-05-24T13:40:12.923Z,25.63